createdAt,value
2022-07-31T00:02:03.326Z,4.20
2022-07-31T00:05:10.945Z,4.50
2022-07-31T00:08:19.199Z,4.70
2022-07-31T00:11:26.576Z,4.80
2022-07-31T00:14:34.740Z,5.40
2022-07-31T00:17:42.520Z,4.90
2022-07-31T00:20:50.110Z,4.70
2022-07-31T00:23:58.191Z,4.80
2022-07-31T00:27:07.382Z,5.10
2022-07-31T00:30:15.482Z,4.90
2022-07-31T00:33:23.638Z,5.80
2022-07-31T00:36:31.075Z,5.60
2022-07-31T00:39:39.309Z,5.50
2022-07-31T00:42:47.458Z,5.90
2022-07-31T00:45:47.201Z,5.70
2022-07-31T00:48:53.077Z,5.70
2022-07-31T00:52:00.880Z,6.30
2022-07-31T00:55:08.650Z,6.70
2022-07-31T00:58:16.841Z,6.50
2022-07-31T01:01:24.717Z,7.20
2022-07-31T01:04:32.514Z,7.70
2022-07-31T01:07:40.710Z,7.60
2022-07-31T01:10:48.459Z,7.90
2022-07-31T01:13:56.085Z,9.10
2022-07-31T01:17:04.187Z,8.80
2022-07-31T01:20:12.439Z,9.20
2022-07-31T01:23:20.152Z,8.80
2022-07-31T01:26:27.781Z,9.10
2022-07-31T01:29:35.991Z,8.80
2022-07-31T01:32:43.344Z,9.20
2022-07-31T01:35:51.444Z,9.50
2022-07-31T01:38:59.479Z,9.40
2022-07-31T01:42:07.011Z,10.00
2022-07-31T01:45:14.883Z,9.60
2022-07-31T01:48:23.058Z,9.70
2022-07-31T01:51:30.449Z,9.70
2022-07-31T01:54:38.477Z,10.20
2022-07-31T01:57:46.481Z,9.60
2022-07-31T02:00:54.109Z,10.80
2022-07-31T02:04:02.863Z,10.10
2022-07-31T02:07:10.185Z,10.40
2022-07-31T02:10:18.303Z,10.30
2022-07-31T02:13:26.105Z,9.40
2022-07-31T02:16:33.846Z,9.50
2022-07-31T02:19:59.857Z,10.20
2022-07-31T02:22:47.508Z,10.30
2022-07-31T02:25:55.259Z,10.60
2022-07-31T02:29:04.351Z,10.80
2022-07-31T02:32:12.141Z,10.50
2022-07-31T02:35:20.125Z,11.20
2022-07-31T02:38:27.840Z,10.00
2022-07-31T02:41:35.876Z,10.60
2022-07-31T02:44:43.692Z,11.30
2022-07-31T02:47:51.518Z,10.70
2022-07-31T02:50:59.503Z,10.10
2022-07-31T02:54:07.140Z,9.70
2022-07-31T02:57:14.898Z,9.70
2022-07-31T03:00:23.215Z,10.60
2022-07-31T03:03:30.580Z,11.60
2022-07-31T03:06:38.611Z,10.40
2022-07-31T03:09:46.930Z,10.80
2022-07-31T03:12:54.265Z,11.60
2022-07-31T03:16:02.334Z,10.60
2022-07-31T03:19:10.268Z,10.70
2022-07-31T03:22:17.597Z,11.10
2022-07-31T03:25:25.637Z,10.00
2022-07-31T03:28:33.230Z,11.50
2022-07-31T03:31:41.599Z,10.90
2022-07-31T03:34:49.792Z,11.10
2022-07-31T03:37:57.183Z,12.10
2022-07-31T03:41:04.940Z,11.60
2022-07-31T03:44:12.803Z,11.10
2022-07-31T03:47:20.274Z,11.20
2022-07-31T03:50:28.714Z,11.10
2022-07-31T03:53:36.443Z,11.80
2022-07-31T03:56:45.027Z,12.70
2022-07-31T03:59:53.518Z,12.30
2022-07-31T04:03:01.303Z,12.70
2022-07-31T04:06:08.831Z,12.50
2022-07-31T04:09:19.093Z,11.90
2022-07-31T04:12:26.905Z,11.80
2022-07-31T04:15:34.627Z,12.10
2022-07-31T04:18:42.713Z,12.90
2022-07-31T04:21:46.972Z,11.90
2022-07-31T04:24:54.344Z,12.60
2022-07-31T04:28:01.976Z,11.90
2022-07-31T04:31:10.217Z,13.20
2022-07-31T04:34:18.067Z,13.50
2022-07-31T04:37:25.678Z,13.40
2022-07-31T04:40:33.819Z,13.60
2022-07-31T04:43:41.360Z,13.80
2022-07-31T04:46:49.902Z,13.00
2022-07-31T04:49:57.912Z,12.70
2022-07-31T04:53:07.092Z,11.20
2022-07-31T04:56:14.941Z,10.80
2022-07-31T04:59:23.139Z,10.40
2022-07-31T05:02:30.355Z,9.40
2022-07-31T05:05:38.399Z,8.70
2022-07-31T05:08:46.440Z,8.00
2022-07-31T05:11:53.699Z,8.00
2022-07-31T05:15:01.649Z,7.10
2022-07-31T05:18:09.463Z,7.50
2022-07-31T05:21:17.167Z,7.70
2022-07-31T05:24:33.583Z,6.60
2022-07-31T05:27:32.221Z,5.40
2022-07-31T05:30:33.077Z,5.00
2022-07-31T05:33:40.997Z,5.20
2022-07-31T05:36:48.258Z,4.60
2022-07-31T05:39:56.029Z,4.00
2022-07-31T05:43:03.672Z,4.10
2022-07-31T05:46:11.783Z,4.50
2022-07-31T05:49:19.675Z,5.10
2022-07-31T05:52:27.454Z,4.70
2022-07-31T05:55:35.165Z,3.80
2022-07-31T05:58:42.935Z,4.00
2022-07-31T06:01:45.357Z,3.90
2022-07-31T06:04:53.028Z,4.00
2022-07-31T06:08:00.790Z,5.20
2022-07-31T06:11:08.142Z,4.70
2022-07-31T06:14:16.663Z,4.30
2022-07-31T06:17:23.844Z,4.50
2022-07-31T06:20:29.478Z,4.80
2022-07-31T06:23:37.244Z,5.00
2022-07-31T06:26:45.076Z,5.90
2022-07-31T06:29:53.107Z,5.20
2022-07-31T06:33:00.818Z,4.90
2022-07-31T06:36:04.336Z,4.40
2022-07-31T06:39:12.170Z,5.60
2022-07-31T06:42:19.499Z,5.00
2022-07-31T06:45:48.898Z,4.60
2022-07-31T06:48:33.134Z,4.40
2022-07-31T06:51:40.437Z,4.60
2022-07-31T06:54:48.438Z,4.60
2022-07-31T06:57:56.676Z,4.30
2022-07-31T07:01:03.998Z,4.40
2022-07-31T07:04:12.060Z,4.20
2022-07-31T07:07:19.451Z,4.20
2022-07-31T07:10:27.142Z,4.60
2022-07-31T07:13:46.477Z,4.30
2022-07-31T07:16:39.586Z,4.40
2022-07-31T07:19:49.574Z,4.60
2022-07-31T07:22:51.606Z,3.80
2022-07-31T07:25:59.378Z,3.40
2022-07-31T07:29:07.050Z,3.90
2022-07-31T07:32:14.580Z,3.60
2022-07-31T07:35:22.661Z,3.40
2022-07-31T07:38:30.292Z,3.90
2022-07-31T07:41:38.193Z,3.80
2022-07-31T07:44:45.525Z,3.90
2022-07-31T07:48:06.182Z,3.50
2022-07-31T07:50:58.577Z,3.80
2022-07-31T07:54:06.389Z,4.40
2022-07-31T07:57:14.120Z,3.60
2022-07-31T08:00:21.474Z,3.70
2022-07-31T08:03:50.442Z,3.60
2022-07-31T08:06:34.263Z,2.80
2022-07-31T08:09:42.276Z,4.10
2022-07-31T08:12:49.543Z,2.70
2022-07-31T08:15:57.536Z,2.70
2022-07-31T08:19:06.238Z,2.40
2022-07-31T08:22:13.849Z,2.20
2022-07-31T08:25:21.761Z,2.90
2022-07-31T08:28:29.632Z,2.80
2022-07-31T08:31:37.394Z,3.10
2022-07-31T08:34:45.242Z,3.10
2022-07-31T08:38:03.729Z,2.60
2022-07-31T08:40:57.783Z,3.00
2022-07-31T08:44:05.499Z,2.60
2022-07-31T08:47:13.449Z,2.20
2022-07-31T08:50:21.241Z,2.40
2022-07-31T08:53:28.954Z,2.20
2022-07-31T08:56:36.962Z,2.70
2022-07-31T08:59:44.247Z,2.60
2022-07-31T09:02:52.396Z,2.20
2022-07-31T09:06:00.469Z,2.50
2022-07-31T09:09:07.979Z,2.80
2022-07-31T09:12:15.860Z,2.00
2022-07-31T09:15:21.014Z,2.20
2022-07-31T09:18:28.757Z,2.10
2022-07-31T09:21:36.875Z,2.20
2022-07-31T09:24:44.233Z,2.10
2022-07-31T09:27:51.968Z,2.30
2022-07-31T09:31:00.021Z,1.60
2022-07-31T09:34:07.916Z,1.00
2022-07-31T09:37:15.929Z,0.70
2022-07-31T09:40:24.331Z,0.80
2022-07-31T09:43:33.372Z,0.90
2022-07-31T09:46:38.782Z,0.90
2022-07-31T09:49:46.425Z,1.10
2022-07-31T09:52:54.389Z,1.10
2022-07-31T09:56:02.726Z,0.90
2022-07-31T09:59:11.824Z,1.20
2022-07-31T10:02:20.895Z,1.00
2022-07-31T10:05:28.963Z,0.90
2022-07-31T10:08:37.294Z,1.40
2022-07-31T10:11:45.715Z,1.00
2022-07-31T10:14:53.006Z,1.10
2022-07-31T10:18:00.809Z,1.10
2022-07-31T10:21:08.879Z,1.30
2022-07-31T10:24:16.435Z,1.70
2022-07-31T10:27:24.419Z,1.40
2022-07-31T10:30:32.663Z,1.00
2022-07-31T10:33:44.787Z,1.50
2022-07-31T10:36:42.555Z,1.30
2022-07-31T10:39:50.326Z,1.00
2022-07-31T10:42:58.108Z,0.80
2022-07-31T10:46:06.489Z,0.80
2022-07-31T10:49:14.386Z,1.00
2022-07-31T10:52:22.269Z,1.20
2022-07-31T10:55:30.702Z,1.70
2022-07-31T10:58:38.774Z,1.50
2022-07-31T11:01:52.648Z,1.40
2022-07-31T11:04:50.324Z,1.50
2022-07-31T11:07:57.748Z,1.30
2022-07-31T11:11:05.489Z,1.50
2022-07-31T11:14:13.081Z,1.00
2022-07-31T11:18:23.735Z,1.60
2022-07-31T11:20:25.655Z,1.40
2022-07-31T11:23:33.896Z,1.40
2022-07-31T11:26:42.353Z,1.30
2022-07-31T11:29:59.900Z,1.30
2022-07-31T11:32:54.870Z,1.20
2022-07-31T11:36:03.000Z,1.10
2022-07-31T11:39:10.481Z,1.10
2022-07-31T11:42:18.740Z,0.90
2022-07-31T11:45:26.635Z,1.10
2022-07-31T11:48:36.017Z,1.20
2022-07-31T11:51:35.616Z,1.00
2022-07-31T11:54:43.037Z,0.80
2022-07-31T11:57:52.963Z,1.30
2022-07-31T12:01:01.216Z,1.20
2022-07-31T12:04:09.376Z,0.90
2022-07-31T12:07:18.140Z,1.20
2022-07-31T12:10:25.723Z,1.00
2022-07-31T12:13:33.652Z,1.10
2022-07-31T12:16:41.717Z,1.00
2022-07-31T12:19:49.108Z,0.90
2022-07-31T12:22:57.862Z,1.20
2022-07-31T12:26:06.510Z,0.80
2022-07-31T12:29:14.110Z,0.60
2022-07-31T12:32:22.213Z,0.60
2022-07-31T12:35:38.420Z,0.60
2022-07-31T12:38:44.690Z,0.80
2022-07-31T12:41:40.499Z,0.60
2022-07-31T12:44:48.430Z,0.50
2022-07-31T12:47:56.481Z,0.80
2022-07-31T12:51:04.374Z,0.90
2022-07-31T12:54:12.540Z,0.70
2022-07-31T12:57:20.483Z,0.70
2022-07-31T13:00:28.158Z,0.70
2022-07-31T13:03:46.007Z,0.60
2022-07-31T13:06:41.562Z,0.60
2022-07-31T13:10:19.029Z,0.60
2022-07-31T13:12:55.040Z,0.60
2022-07-31T13:16:02.523Z,0.80
2022-07-31T13:19:10.794Z,0.80
2022-07-31T13:22:18.746Z,0.70
2022-07-31T13:25:26.265Z,0.80
2022-07-31T13:28:34.553Z,0.60
2022-07-31T13:31:42.579Z,1.00
2022-07-31T13:35:19.570Z,0.80
2022-07-31T13:37:56.086Z,1.10
2022-07-31T13:41:04.029Z,0.80
2022-07-31T13:44:11.988Z,0.70
2022-07-31T13:47:20.056Z,1.00
2022-07-31T13:50:27.889Z,1.10
2022-07-31T13:53:35.700Z,1.00
2022-07-31T13:56:44.342Z,0.80
2022-07-31T13:59:52.059Z,1.00
2022-07-31T14:03:00.036Z,0.90
2022-07-31T14:06:07.777Z,1.00
2022-07-31T14:09:15.830Z,0.90
2022-07-31T14:12:23.706Z,0.90
2022-07-31T14:15:31.691Z,1.00
2022-07-31T14:18:40.019Z,0.80
2022-07-31T14:21:50.155Z,0.90
2022-07-31T14:24:53.023Z,0.80
2022-07-31T14:28:01.075Z,0.70
2022-07-31T14:31:08.615Z,0.90
2022-07-31T14:34:17.016Z,0.70
2022-07-31T14:37:24.988Z,0.60
2022-07-31T14:40:32.631Z,0.80
2022-07-31T14:43:40.812Z,0.70
2022-07-31T14:46:48.804Z,1.20
2022-07-31T14:50:09.525Z,0.90
2022-07-31T14:53:02.296Z,0.70
2022-07-31T14:56:09.848Z,1.00
2022-07-31T14:59:18.220Z,1.20
2022-07-31T15:02:26.519Z,0.90
2022-07-31T15:06:41.247Z,1.10
2022-07-31T15:08:39.825Z,0.90
2022-07-31T15:11:59.128Z,0.80
2022-07-31T15:14:52.939Z,0.80
2022-07-31T15:18:01.238Z,1.00
2022-07-31T15:21:08.640Z,0.90
2022-07-31T15:24:16.660Z,0.90
2022-07-31T15:27:25.293Z,0.80
2022-07-31T15:30:32.984Z,0.90
2022-07-31T15:33:41.314Z,1.20
2022-07-31T15:36:49.999Z,1.00
2022-07-31T15:40:02.527Z,0.90
2022-07-31T15:43:00.677Z,1.30
2022-07-31T15:46:08.888Z,0.80
2022-07-31T15:49:17.190Z,0.80
2022-07-31T15:52:24.797Z,0.90
2022-07-31T15:55:32.922Z,0.70
2022-07-31T15:58:40.902Z,0.90
2022-07-31T16:01:48.620Z,0.80
2022-07-31T16:04:59.688Z,1.40
2022-07-31T16:08:32.246Z,1.00
2022-07-31T16:11:04.118Z,1.00
2022-07-31T16:14:12.189Z,1.40
2022-07-31T16:17:20.363Z,1.20
2022-07-31T16:20:28.694Z,1.30
2022-07-31T16:23:36.915Z,1.10
2022-07-31T16:26:44.177Z,1.50
2022-07-31T16:29:59.024Z,1.10
2022-07-31T16:32:52.416Z,1.00
2022-07-31T16:35:59.592Z,1.00
2022-07-31T16:39:19.936Z,1.00
2022-07-31T16:42:12.363Z,1.20
2022-07-31T16:45:20.617Z,1.00
2022-07-31T16:48:28.778Z,1.20
2022-07-31T16:51:36.248Z,1.00
2022-07-31T16:54:44.460Z,1.10
2022-07-31T16:57:53.071Z,1.10
2022-07-31T17:01:01.181Z,0.80
2022-07-31T17:04:09.374Z,0.70
2022-07-31T17:07:17.213Z,0.60
2022-07-31T17:10:25.215Z,0.80
2022-07-31T17:13:35.236Z,0.50
2022-07-31T17:16:47.143Z,0.60
2022-07-31T17:19:47.421Z,0.60
2022-07-31T17:22:55.224Z,0.60
2022-07-31T17:26:03.482Z,0.40
2022-07-31T17:29:11.454Z,0.70
2022-07-31T17:32:19.084Z,0.60
2022-07-31T17:35:27.262Z,0.50
2022-07-31T17:38:34.544Z,0.60
2022-07-31T17:41:42.640Z,0.80
2022-07-31T17:44:54.652Z,0.90
2022-07-31T17:48:03.287Z,1.00
2022-07-31T17:50:59.151Z,1.20
2022-07-31T17:54:07.912Z,0.90
2022-07-31T17:57:16.892Z,1.10
2022-07-31T18:00:27.387Z,1.20
2022-07-31T18:03:28.603Z,1.20
2022-07-31T18:06:36.665Z,1.10
2022-07-31T18:09:44.887Z,1.10
2022-07-31T18:12:57.701Z,1.00
2022-07-31T18:15:55.538Z,1.20
2022-07-31T18:19:03.479Z,1.30
2022-07-31T18:22:10.693Z,1.40
2022-07-31T18:25:19.201Z,1.30
2022-07-31T18:28:26.913Z,1.10
2022-07-31T18:31:36.109Z,1.30
2022-07-31T18:34:43.455Z,1.20
2022-07-31T18:37:50.999Z,1.10
2022-07-31T18:40:58.929Z,1.10
2022-07-31T18:44:06.680Z,0.90
2022-07-31T18:47:13.971Z,1.00
2022-07-31T18:50:59.944Z,1.00
2022-07-31T18:53:27.053Z,1.30
2022-07-31T18:56:35.284Z,1.10
2022-07-31T18:59:42.911Z,1.10
2022-07-31T19:02:50.573Z,1.30
2022-07-31T19:05:58.245Z,1.20
2022-07-31T19:09:05.543Z,1.50
2022-07-31T19:12:13.529Z,1.60
2022-07-31T19:15:21.868Z,1.30
2022-07-31T19:18:29.258Z,1.10
2022-07-31T19:21:42.471Z,1.20
2022-07-31T19:24:40.131Z,1.20
2022-07-31T19:27:50.237Z,1.10
2022-07-31T19:30:58.457Z,1.10
2022-07-31T19:34:06.923Z,1.30
2022-07-31T19:37:14.625Z,1.30
2022-07-31T19:40:23.206Z,1.20
2022-07-31T19:43:31.018Z,1.30
2022-07-31T19:46:38.769Z,1.30
2022-07-31T19:49:46.799Z,1.20
2022-07-31T19:52:54.492Z,1.30
2022-07-31T19:56:02.245Z,1.30
2022-07-31T19:59:10.177Z,1.20
2022-07-31T20:02:17.861Z,1.20
2022-07-31T20:05:25.665Z,1.50
2022-07-31T20:08:33.883Z,1.60
2022-07-31T20:11:42.208Z,1.50
2022-07-31T20:14:50.077Z,1.30
2022-07-31T20:17:58.191Z,1.10
2022-07-31T20:21:06.290Z,1.30
2022-07-31T20:24:14.261Z,1.80
2022-07-31T20:27:22.138Z,1.70
2022-07-31T20:30:30.142Z,1.60
2022-07-31T20:33:37.584Z,1.60
2022-07-31T20:36:45.783Z,1.30
2022-07-31T20:39:54.035Z,1.50
2022-07-31T20:43:01.559Z,1.50
2022-07-31T20:46:09.770Z,1.40
2022-07-31T20:49:19.607Z,1.40
2022-07-31T20:52:22.842Z,1.50
2022-07-31T20:55:31.041Z,1.40
2022-07-31T20:58:39.037Z,2.00
2022-07-31T21:01:46.573Z,1.40
2022-07-31T21:04:54.843Z,2.10
2022-07-31T21:08:02.705Z,1.50
2022-07-31T21:11:10.608Z,2.00
2022-07-31T21:14:18.834Z,1.90
2022-07-31T21:17:26.177Z,2.10
2022-07-31T21:20:50.157Z,1.70
2022-07-31T21:23:39.140Z,1.70
2022-07-31T21:26:47.750Z,2.00
2022-07-31T21:29:48.163Z,1.90
2022-07-31T21:32:56.055Z,2.20
2022-07-31T21:36:04.373Z,2.10
2022-07-31T21:39:18.578Z,2.10
2022-07-31T21:42:15.801Z,2.20
2022-07-31T21:45:23.678Z,2.30
2022-07-31T21:48:33.166Z,2.30
2022-07-31T21:51:41.261Z,2.60
2022-07-31T21:54:49.153Z,2.50
2022-07-31T21:57:59.185Z,2.70
2022-07-31T22:00:57.596Z,2.60
2022-07-31T22:04:05.370Z,2.70
2022-07-31T22:07:13.385Z,2.70
2022-07-31T22:10:21.228Z,2.80
2022-07-31T22:13:29.077Z,3.00
2022-07-31T22:16:37.111Z,2.90
2022-07-31T22:19:47.391Z,3.30
2022-07-31T22:22:55.661Z,3.30
2022-07-31T22:26:03.485Z,3.50
2022-07-31T22:29:11.352Z,3.40
2022-07-31T22:32:15.634Z,4.10
2022-07-31T22:35:22.967Z,4.40
2022-07-31T22:38:31.127Z,3.80
2022-07-31T22:41:39.177Z,3.60
2022-07-31T22:44:46.889Z,4.80
2022-07-31T22:47:54.776Z,4.80
2022-07-31T22:51:02.861Z,4.70
2022-07-31T22:54:10.801Z,4.70
2022-07-31T22:57:18.462Z,5.20
2022-07-31T23:00:27.793Z,5.30
2022-07-31T23:03:36.004Z,4.60
2022-07-31T23:06:43.905Z,4.40
2022-07-31T23:09:51.726Z,4.30
2022-07-31T23:13:00.188Z,4.40
2022-07-31T23:16:08.268Z,4.30
2022-07-31T23:19:16.172Z,4.00
2022-07-31T23:22:33.346Z,4.30
2022-07-31T23:25:29.411Z,3.40
2022-07-31T23:28:37.841Z,3.50
2022-07-31T23:31:45.850Z,3.20
2022-07-31T23:34:53.262Z,3.10
2022-07-31T23:38:01.456Z,3.40
2022-07-31T23:41:09.242Z,3.10
2022-07-31T23:44:24.885Z,3.10
2022-07-31T23:47:21.919Z,3.30
2022-07-31T23:50:30.418Z,3.50
2022-07-31T23:53:38.218Z,3.60
2022-07-31T23:56:46.460Z,3.40
2022-07-31T23:59:54.141Z,3.40
